Time;durP1;ratioP1;P1;durP2;ratioP2;P2;SDS_P1;SDS_P2;PMS_P1;PMS_P2;Temp;Humidity;BMP_temperature;BMP_pressure;BME280_temperature;BME280_humidity;BME280_pressure;Samples;Min_cycle;Max_cycle;Signal;HPM_P1;HPM_P2
2022/05/10 00:01:20;;;;;;;6.77;5.40;;;;;;;18.60;59.53;100884.25;4974111;28;20771;-73
2022/05/10 00:03:45;;;;;;;6.88;5.47;;;;;;;18.57;59.82;100893.06;4972602;28;20412;-73
2022/05/10 00:06:20;;;;;;;8.90;5.88;;;;;;;18.54;60.18;100888.94;4974041;28;20399;-74
2022/05/10 00:08:45;;;;;;;6.40;5.80;;;;;;;18.52;60.29;100890.34;4973834;28;20438;-73
2022/05/10 00:11:11;;;;;;;6.90;5.95;;;;;;;18.50;60.31;100887.91;4974272;28;20428;-74
2022/05/10 00:13:36;;;;;;;6.43;5.83;;;;;;;18.52;60.10;100888.41;4972915;28;20447;-73
2022/05/10 00:16:04;;;;;;;6.25;5.57;;;;;;;18.46;60.12;100885.97;4974046;28;20399;-74
2022/05/10 00:18:30;;;;;;;7.68;6.05;;;;;;;18.37;60.59;100877.53;4973014;28;20416;-73
2022/05/10 00:20:56;;;;;;;6.10;5.50;;;;;;;18.31;60.78;100869.63;4973741;28;20466;-73
2022/05/10 00:23:21;;;;;;;6.20;5.45;;;;;;;18.30;60.68;100881.72;4971902;28;20949;-73
2022/05/10 00:25:47;;;;;;;9.63;5.55;;;;;;;18.32;60.66;100874.81;4973927;28;20484;-73
2022/05/10 00:28:12;;;;;;;6.20;5.60;;;;;;;18.32;60.92;100879.47;4974067;28;20756;-73
2022/05/10 00:30:38;;;;;;;7.07;6.37;;;;;;;18.29;61.12;100871.81;4973454;28;20408;-73
2022/05/10 00:33:04;;;;;;;7.68;6.85;;;;;;;18.27;61.24;100869.38;4971971;28;20424;-73
2022/05/10 00:35:33;;;;;;;8.20;7.40;;;;;;;18.28;61.46;100875.66;4972418;28;20779;-74
2022/05/10 00:38:00;;;;;;;8.05;7.00;;;;;;;18.29;61.54;100878.13;4972538;28;20803;-73
2022/05/10 00:40:32;;;;;;;7.43;6.72;;;;;;;18.29;61.61;100875.41;4973165;28;20459;-73
2022/05/10 00:43:01;;;;;;;6.97;6.32;;;;;;;18.27;61.35;100874.06;4972221;28;20412;-73
2022/05/10 00:45:57;;;;;;;7.03;6.32;;;;;;;18.25;61.20;100870.75;4972773;28;20415;-73
2022/05/10 00:48:25;;;;;;;7.50;6.10;;;;;;;18.23;61.50;100868.31;4948815;28;20960;-73
2022/05/10 00:50:57;;;;;;;6.73;6.13;;;;;;;18.25;61.02;100866.09;4973372;28;20403;-73
2022/05/10 00:53:25;;;;;;;6.30;5.80;;;;;;;18.21;60.65;100856.78;4972287;28;20423;-73
2022/05/10 00:55:56;;;;;;;6.68;5.93;;;;;;;18.14;60.50;100857.09;4973405;28;20768;-74
2022/05/10 00:58:32;;;;;;;5.80;5.30;;;;;;;18.07;60.42;100855.81;4973100;28;20804;-73
2022/05/10 01:01:00;;;;;;;5.30;5.00;;;;;;;17.99;60.54;100854.47;4968698;28;20777;-74
2022/05/10 01:03:30;;;;;;;5.80;5.40;;;;;;;17.93;60.49;100849.31;4966625;28;20458;-73
2022/05/10 01:06:20;;;;;;;5.38;5.00;;;;;;;17.87;60.43;100842.22;4973158;28;20403;-74
2022/05/10 01:08:48;;;;;;;9.50;5.57;;;;;;;17.79;60.54;100848.28;4973161;28;20380;-73
2022/05/10 01:11:23;;;;;;;6.88;5.78;;;;;;;17.75;60.29;100841.75;4973225;28;20455;-73
2022/05/10 01:13:55;;;;;;;6.37;5.77;;;;;;;17.69;59.90;100837.38;4971851;28;20416;-73
2022/05/10 01:16:22;;;;;;;5.93;5.40;;;;;;;17.61;59.74;100842.38;4973016;28;20831;-73
2022/05/10 01:18:50;;;;;;;5.85;5.45;;;;;;;17.56;59.72;100838.81;4972223;28;20411;-73
2022/05/10 01:21:45;;;;;;;6.15;5.60;;;;;;;17.47;59.79;100841.31;4972821;28;20799;-73
2022/05/10 01:24:13;;;;;;;8.27;5.95;;;;;;;17.34;60.57;100838.38;4969006;28;20506;-73
2022/05/10 01:26:57;;;;;;;7.63;6.72;;;;;;;17.32;60.86;100837.84;4972785;28;20396;-73
2022/05/10 01:29:40;;;;;;;6.65;6.15;;;;;;;17.29;61.06;100841.13;4972899;28;20485;-73
2022/05/10 01:34:59;;;;;;;8.23;6.15;;;;;;;17.28;61.12;100834.00;4968057;28;20483;-73
2022/05/10 01:37:30;;;;;;;7.38;6.18;;;;;;;17.27;61.30;100832.34;4971451;28;20392;-73
2022/05/10 01:40:01;;;;;;;7.07;5.72;;;;;;;17.25;61.20;100829.91;4972768;28;20771;-73
2022/05/10 01:42:40;;;;;;;7.63;6.28;;;;;;;17.24;61.34;100825.53;4971324;28;20399;-73
2022/05/10 01:45:12;;;;;;;6.32;5.82;;;;;;;17.23;61.37;100834.84;4972899;28;20851;-74
2022/05/10 01:47:45;;;;;;;7.55;6.25;;;;;;;17.22;61.24;100826.91;4972700;28;20403;-73
2022/05/10 01:50:16;;;;;;;7.10;6.32;;;;;;;17.17;60.93;100825.00;4971095;28;20407;-73
2022/05/10 01:52:54;;;;;;;7.10;6.50;;;;;;;17.14;61.33;100822.81;4970138;28;20404;-73
2022/05/10 01:55:31;;;;;;;7.75;7.15;;;;;;;17.12;61.62;100825.03;4961852;28;20396;-73
2022/05/10 01:58:01;;;;;;;7.95;6.75;;;;;;;17.06;61.80;100828.88;4975088;28;20414;-74
2022/05/10 02:00:28;;;;;;;8.10;7.10;;;;;;;17.04;62.26;100814.63;4975378;28;20767;-73
2022/05/10 02:03:01;;;;;;;7.47;6.20;;;;;;;17.02;62.31;100823.16;4974926;28;20420;-73
2022/05/10 02:05:46;;;;;;;7.65;6.60;;;;;;;17.04;62.14;100815.47;4976265;28;20438;-74
2022/05/10 02:08:21;;;;;;;9.70;7.07;;;;;;;17.02;62.37;100823.16;4976424;28;20448;-73
2022/05/10 02:10:51;;;;;;;7.70;6.35;;;;;;;17.00;62.41;100825.31;4976293;28;20743;-73
2022/05/10 02:13:25;;;;;;;8.25;7.57;;;;;;;16.98;62.54;100832.19;4970720;28;20410;-73
2022/05/10 02:15:57;;;;;;;8.27;7.50;;;;;;;16.95;63.02;100825.34;4968077;28;20396;-73
2022/05/10 02:18:38;;;;;;;7.18;6.50;;;;;;;16.96;63.19;100824.25;4976087;28;20859;-73
2022/05/10 02:21:27;;;;;;;7.43;6.72;;;;;;;16.96;63.32;100821.50;4976050;28;20427;-74
2022/05/10 02:24:16;;;;;;;9.00;7.70;;;;;;;16.90;63.84;100819.06;4974973;28;20412;-74
2022/05/10 02:26:51;;;;;;;11.43;7.70;;;;;;;16.88;63.80;100822.09;4959804;28;20411;-73
2022/05/10 02:29:26;;;;;;;8.73;7.93;;;;;;;16.88;63.96;100815.78;4975740;28;20415;-73
2022/05/10 02:34:43;;;;;;;11.25;8.73;;;;;;;16.86;63.86;100809.78;4974775;28;20423;-74
2022/05/10 02:37:08;;;;;;;8.02;7.22;;;;;;;16.87;63.75;100806.75;4975925;28;20399;-74
2022/05/10 02:39:35;;;;;;;8.83;8.10;;;;;;;16.84;63.88;100811.97;4975443;28;20416;-73
2022/05/10 02:42:01;;;;;;;8.38;7.68;;;;;;;16.83;63.91;100808.41;4975631;28;20408;-73
2022/05/10 02:44:27;;;;;;;8.88;8.02;;;;;;;16.82;64.03;100801.31;4974955;28;20419;-74
2022/05/10 02:46:53;;;;;;;9.95;7.97;;;;;;;16.82;64.15;100803.22;4975525;28;20400;-74
2022/05/10 02:49:18;;;;;;;8.68;7.78;;;;;;;16.81;63.98;100807.03;4975638;28;20423;-74
2022/05/10 02:51:44;;;;;;;8.63;7.73;;;;;;;16.78;64.38;100805.69;4975821;28;20399;-74
2022/05/10 02:54:09;;;;;;;7.90;7.10;;;;;;;16.78;64.27;100802.13;4972753;28;20416;-74
2022/05/10 02:56:36;;;;;;;10.23;8.40;;;;;;;16.78;64.21;100807.59;4975489;28;20455;-73
2022/05/10 02:59:17;;;;;;;8.98;7.60;;;;;;;16.77;64.14;100806.78;4975185;28;20779;-73
2022/05/10 03:01:46;;;;;;;10.30;7.90;;;;;;;16.76;64.11;100809.81;4975205;28;20396;-74
2022/05/10 03:04:12;;;;;;;9.05;7.30;;;;;;;16.77;63.95;100806.78;4973378;28;20412;-74
2022/05/10 03:06:38;;;;;;;7.57;6.90;;;;;;;16.76;63.70;100810.59;4975388;28;20403;-73
2022/05/10 03:09:05;;;;;;;8.53;7.10;;;;;;;16.73;63.19;100799.41;4975119;28;20480;-74
2022/05/10 03:11:31;;;;;;;6.55;5.85;;;;;;;16.66;62.82;100807.09;4974936;28;20400;-73
2022/05/10 03:13:56;;;;;;;6.45;5.80;;;;;;;16.58;62.45;100806.53;4974031;28;20459;-73
2022/05/10 03:16:24;;;;;;;5.80;5.27;;;;;;;16.48;62.10;100805.69;4975389;28;20853;-73
2022/05/10 03:18:49;;;;;;;6.60;5.97;;;;;;;16.38;61.84;100806.53;4975208;28;20399;-73
2022/05/10 03:21:15;;;;;;;6.17;5.60;;;;;;;16.32;62.09;100802.16;4974982;28;20895;-74
2022/05/10 03:23:40;;;;;;;6.55;5.95;;;;;;;16.23;61.94;100801.09;4974071;28;20443;-73
2022/05/10 03:26:06;;;;;;;8.63;6.30;;;;;;;16.18;62.34;100806.53;4974999;28;20437;-73
2022/05/10 03:28:31;;;;;;;6.55;5.95;;;;;;;16.18;62.38;100809.28;4974899;28;20404;-74
2022/05/10 03:30:57;;;;;;;5.97;5.50;;;;;;;16.16;62.40;100811.47;4975090;28;20404;-73
2022/05/10 03:33:22;;;;;;;7.13;6.43;;;;;;;16.13;62.52;100806.56;4973315;28;20424;-73
2022/05/10 03:35:48;;;;;;;10.98;5.95;;;;;;;16.09;62.72;100813.66;4974841;28;20528;-73
2022/05/10 03:38:14;;;;;;;6.63;6.07;;;;;;;16.12;62.77;100810.38;4974491;28;20428;-74
2022/05/10 03:40:39;;;;;;;6.72;6.13;;;;;;;16.13;62.74;100806.56;4974653;28;20416;-74
2022/05/10 03:43:10;;;;;;;7.47;5.53;;;;;;;16.15;62.82;100806.25;4973602;28;20412;-74
2022/05/10 03:45:35;;;;;;;6.70;6.20;;;;;;;16.14;62.56;100802.69;4974636;28;20721;-73
2022/05/10 03:48:01;;;;;;;6.65;6.05;;;;;;;16.15;62.31;100804.34;4974552;28;20411;-73
2022/05/10 03:50:26;;;;;;;7.03;6.37;;;;;;;16.14;62.41;100799.13;4974658;28;20396;-74
2022/05/10 03:52:52;;;;;;;7.10;6.50;;;;;;;16.17;62.52;100795.88;4972038;28;20420;-74
2022/05/10 03:55:21;;;;;;;8.73;6.37;;;;;;;16.17;63.01;100793.16;4974248;28;20417;-74
2022/05/10 03:57:46;;;;;;;7.78;7.10;;;;;;;16.12;63.38;100799.44;4974123;28;20940;-73
2022/05/10 04:00:16;;;;;;;8.13;7.53;;;;;;;16.09;63.62;100802.72;4974095;28;20503;-74
2022/05/10 04:02:41;;;;;;;8.05;7.32;;;;;;;16.00;64.18;100807.09;4972628;28;20408;-74
2022/05/10 04:05:07;;;;;;;8.32;7.47;;;;;;;15.96;64.50;100800.53;4973847;28;20926;-73
2022/05/10 04:07:33;;;;;;;8.80;8.00;;;;;;;15.96;64.57;100803.25;4973934;28;20733;-73
2022/05/10 04:09:58;;;;;;;8.63;7.83;;;;;;;16.02;64.69;100802.16;4973891;28;20947;-74
2022/05/10 04:12:23;;;;;;;8.00;7.20;;;;;;;16.05;64.37;100801.59;4970527;28;20448;-73
2022/05/10 04:14:49;;;;;;;8.10;7.30;;;;;;;16.07;64.38;100796.69;4978128;28;20414;-73
2022/05/10 04:17:14;;;;;;;8.40;7.47;;;;;;;16.05;64.41;100802.44;4970777;28;20408;-74
2022/05/10 04:19:39;;;;;;;9.47;7.30;;;;;;;16.06;64.36;100797.78;4980314;28;20447;-73
2022/05/10 04:22:05;;;;;;;8.03;7.23;;;;;;;16.07;63.91;100800.22;4973136;28;20895;-74
2022/05/10 04:24:30;;;;;;;8.63;7.43;;;;;;;16.07;63.84;100804.88;4973509;28;20412;-73
2022/05/10 04:26:56;;;;;;;7.70;6.93;;;;;;;16.00;64.29;100805.16;4963205;28;20416;-73
2022/05/10 04:29:21;;;;;;;17.80;9.07;;;;;;;15.97;64.62;100804.91;4972527;28;20467;-73
2022/05/10 04:31:46;;;;;;;8.97;8.07;;;;;;;15.99;64.56;100809.00;4967518;28;20404;-73
2022/05/10 04:34:11;;;;;;;9.50;8.53;;;;;;;16.02;64.73;100811.19;4970597;28;20428;-73
2022/05/10 04:36:37;;;;;;;9.30;8.40;;;;;;;16.04;64.82;100813.63;4966268;28;20756;-73
2022/05/10 04:39:03;;;;;;;9.47;8.63;;;;;;;16.07;64.63;100824.03;4965907;28;20506;-73
2022/05/10 04:41:31;;;;;;;9.07;7.30;;;;;;;16.08;64.50;100825.66;4970984;28;20423;-73
2022/05/10 04:44:08;;;;;;;8.43;7.47;;;;;;;16.12;64.51;100823.22;4973254;28;20405;-73
2022/05/10 04:46:35;;;;;;;9.57;8.63;;;;;;;16.12;64.77;100828.69;4971820;28;20412;-73
2022/05/10 04:49:02;;;;;;;9.38;8.50;;;;;;;16.14;64.77;100831.94;4973301;28;20472;-73
2022/05/10 04:51:28;;;;;;;16.33;9.75;;;;;;;16.14;64.46;100827.31;4966791;28;20410;-73
2022/05/10 04:53:54;;;;;;;11.95;8.82;;;;;;;16.12;64.71;100836.88;4969529;28;20444;-73
2022/05/10 04:56:20;;;;;;;8.23;7.43;;;;;;;16.08;64.90;100834.69;4964523;28;20439;-73
2022/05/10 04:58:46;;;;;;;8.23;7.50;;;;;;;16.06;64.96;100844.28;4968697;28;20415;-73
2022/05/10 05:01:14;;;;;;;9.60;8.27;;;;;;;16.04;65.01;100838.22;4969395;28;20420;-73
2022/05/10 05:03:43;;;;;;;9.98;8.55;;;;;;;16.04;65.08;100843.69;4964092;28;20764;-73
2022/05/10 05:06:08;;;;;;;8.20;7.50;;;;;;;16.04;65.16;100846.44;4963357;28;20416;-73
2022/05/10 05:08:33;;;;;;;10.87;8.27;;;;;;;16.07;64.96;100849.44;4965362;28;20420;-73
2022/05/10 05:10:59;;;;;;;8.88;7.68;;;;;;;16.08;65.06;100853.00;4971495;28;20946;-74
2022/05/10 05:13:25;;;;;;;8.67;7.77;;;;;;;16.10;65.42;100862.56;4972476;28;20388;-74
2022/05/10 05:15:51;;;;;;;11.55;8.27;;;;;;;16.08;65.60;100862.03;4972862;28;20427;-74
2022/05/10 05:18:16;;;;;;;8.73;7.93;;;;;;;16.09;66.09;100871.06;4971026;28;20449;-74
2022/05/10 05:20:42;;;;;;;9.13;8.27;;;;;;;16.15;66.07;100869.97;4972278;28;20863;-73
2022/05/10 05:23:10;;;;;;;9.48;8.52;;;;;;;16.23;66.06;100865.88;4972385;28;20390;-73
2022/05/10 05:25:36;;;;;;;10.18;8.32;;;;;;;16.28;66.14;100865.88;4970158;28;20866;-73
2022/05/10 05:28:02;;;;;;;10.43;8.90;;;;;;;16.29;66.35;100857.41;4972641;28;20396;-74
2022/05/10 05:30:28;;;;;;;10.75;9.20;;;;;;;16.24;66.26;100857.41;4972468;28;20385;-74
2022/05/10 05:32:53;;;;;;;9.70;8.77;;;;;;;16.25;66.23;100869.16;4969164;28;20428;-73
2022/05/10 05:35:18;;;;;;;10.30;9.30;;;;;;;16.33;66.25;100850.31;4972709;28;20824;-73
2022/05/10 05:37:44;;;;;;;14.32;12.90;;;;;;;16.45;66.14;100858.22;4972538;28;20399;-73
2022/05/10 05:40:12;;;;;;;9.70;8.90;;;;;;;16.48;66.07;100854.94;4970900;28;20783;-74
2022/05/10 05:42:38;;;;;;;13.03;10.10;;;;;;;16.55;66.23;100863.72;4970249;28;20469;-74
2022/05/10 05:45:05;;;;;;;9.43;8.63;;;;;;;16.64;65.88;100864.00;4972591;28;20392;-74
2022/05/10 05:47:31;;;;;;;11.00;9.40;;;;;;;16.70;65.74;100860.16;4972031;28;20420;-74
2022/05/10 05:49:56;;;;;;;10.37;9.33;;;;;;;16.74;65.79;100862.06;4971314;28;20493;-74
2022/05/10 05:52:22;;;;;;;10.13;9.23;;;;;;;16.78;65.93;100859.59;4971598;28;20426;-74
2022/05/10 05:54:51;;;;;;;8.98;8.23;;;;;;;16.83;66.04;100859.59;4972338;28;20403;-74
2022/05/10 05:57:18;;;;;;;9.93;8.93;;;;;;;16.87;66.01;100860.66;4968917;28;20384;-75
2022/05/10 05:59:43;;;;;;;9.48;8.48;;;;;;;16.90;66.11;100862.84;4972436;28;20755;-75
2022/05/10 06:02:16;;;;;;;14.45;8.50;;;;;;;16.93;65.80;100860.38;4970753;28;20412;-75
2022/05/10 06:04:42;;;;;;;9.93;8.82;;;;;;;16.98;65.77;100857.66;4967662;28;21439;-75
2022/05/10 06:07:09;;;;;;;10.20;9.07;;;;;;;16.98;65.70;100856.84;4966776;28;20420;-75
2022/05/10 06:09:35;;;;;;;11.40;8.93;;;;;;;17.01;66.19;100859.84;4972173;28;20416;-75
2022/05/10 06:12:01;;;;;;;15.00;8.18;;;;;;;17.06;66.06;100854.34;4972266;28;20389;-75
2022/05/10 06:14:26;;;;;;;11.93;9.23;;;;;;;17.07;66.27;100857.91;4972309;28;20392;-74
2022/05/10 06:16:55;;;;;;;10.30;9.30;;;;;;;17.09;66.23;100859.25;4971006;28;20448;-73
2022/05/10 06:19:20;;;;;;;9.95;8.98;;;;;;;17.08;66.27;100860.38;4971897;28;20423;-73
2022/05/10 06:21:46;;;;;;;9.98;8.98;;;;;;;17.11;66.34;100859.00;4971965;28;20424;-74
2022/05/10 06:24:11;;;;;;;9.80;9.00;;;;;;;17.12;65.95;100864.16;4972116;28;20404;-73
2022/05/10 06:26:37;;;;;;;10.23;8.67;;;;;;;17.07;65.83;100852.41;4970091;28;20990;-74
2022/05/10 06:29:02;;;;;;;10.75;8.50;;;;;;;17.11;65.15;100862.53;4971017;28;20562;-73
2022/05/10 06:31:28;;;;;;;10.20;8.68;;;;;;;17.18;64.79;100866.91;4971825;28;20419;-74
2022/05/10 06:33:53;;;;;;;9.93;8.30;;;;;;;17.24;64.69;100869.34;4971736;28;20507;-74
2022/05/10 06:36:20;;;;;;;8.52;7.78;;;;;;;17.26;64.93;100867.16;4969619;28;21334;-73
2022/05/10 06:38:46;;;;;;;18.27;8.65;;;;;;;17.31;65.26;100860.84;4968665;28;20941;-73
2022/05/10 06:41:11;;;;;;;9.37;8.57;;;;;;;17.38;64.91;100861.38;4974977;28;20420;-73
2022/05/10 06:43:37;;;;;;;9.90;8.97;;;;;;;17.40;65.12;100862.72;4970385;28;20438;-73
2022/05/10 06:46:07;;;;;;;9.98;8.63;;;;;;;17.44;65.09;100860.25;4968305;28;20402;-72
2022/05/10 06:48:33;;;;;;;9.18;8.27;;;;;;;17.45;65.24;100857.19;4975322;28;20510;-73
2022/05/10 06:50:58;;;;;;;11.17;8.70;;;;;;;17.51;65.34;100861.59;4973886;28;20950;-73
2022/05/10 06:53:26;;;;;;;9.37;8.47;;;;;;;17.56;65.30;100855.28;4975539;28;20408;-73
2022/05/10 06:55:51;;;;;;;12.60;9.03;;;;;;;17.59;65.07;100855.53;4975005;28;20396;-73
2022/05/10 06:58:17;;;;;;;9.30;8.40;;;;;;;17.64;64.92;100857.44;4962947;28;20416;-73
2022/05/10 07:00:42;;;;;;;9.60;8.70;;;;;;;17.70;64.71;100852.75;4974816;28;20428;-72
2022/05/10 07:03:10;;;;;;;8.60;7.90;;;;;;;17.74;64.80;100854.66;4975009;28;20420;-73
2022/05/10 07:05:36;;;;;;;9.68;8.52;;;;;;;17.75;64.76;100853.53;4974316;28;20757;-73
2022/05/10 07:08:01;;;;;;;9.30;8.23;;;;;;;17.79;64.72;100859.25;4969089;28;20428;-73
2022/05/10 07:10:26;;;;;;;10.03;9.00;;;;;;;17.86;64.47;100851.56;4973830;28;20443;-74
2022/05/10 07:12:53;;;;;;;10.90;9.80;;;;;;;17.87;64.84;100854.03;4973307;28;20769;-74
2022/05/10 07:15:19;;;;;;;9.67;8.73;;;;;;;17.91;64.99;100848.78;4974568;28;20396;-73
2022/05/10 07:17:45;;;;;;;10.37;8.77;;;;;;;17.96;64.76;100855.06;4973647;28;20431;-73
2022/05/10 07:20:13;;;;;;;9.45;8.45;;;;;;;18.02;64.83;100850.34;4974807;28;20428;-74
2022/05/10 07:22:39;;;;;;;11.80;8.52;;;;;;;18.09;64.26;100848.94;4974824;28;20423;-74
2022/05/10 07:25:05;;;;;;;12.00;8.50;;;;;;;18.14;64.30;100850.84;4972369;28;20903;-73
2022/05/10 07:27:31;;;;;;;9.93;8.38;;;;;;;18.19;64.48;100858.19;4974605;28;20405;-74
2022/05/10 07:29:56;;;;;;;9.48;8.65;;;;;;;18.23;64.37;100857.34;4974194;28;20415;-73
2022/05/10 07:32:22;;;;;;;11.77;8.90;;;;;;;18.27;64.07;100855.66;4971635;28;20423;-74
2022/05/10 07:34:47;;;;;;;10.02;8.95;;;;;;;18.32;63.98;100857.53;4951690;28;20500;-73
2022/05/10 07:37:13;;;;;;;10.03;9.03;;;;;;;18.35;63.74;100857.78;4968681;28;20432;-74
2022/05/10 07:39:38;;;;;;;10.63;9.10;;;;;;;18.39;63.78;100853.38;4974199;28;20416;-74
2022/05/10 07:42:04;;;;;;;10.00;9.10;;;;;;;18.42;63.99;100850.03;4972440;28;20421;-73
2022/05/10 07:44:33;;;;;;;11.32;8.90;;;;;;;18.45;63.84;100852.22;4973973;28;20400;-73
2022/05/10 07:46:58;;;;;;;9.77;8.70;;;;;;;18.49;63.94;100850.53;4974152;28;20476;-73
2022/05/10 07:49:23;;;;;;;13.13;9.23;;;;;;;18.53;63.76;100848.06;4973389;28;20958;-74
2022/05/10 07:51:49;;;;;;;9.77;8.23;;;;;;;18.58;64.13;100846.09;4972896;28;20491;-73
2022/05/10 07:54:14;;;;;;;9.93;8.93;;;;;;;18.63;63.61;100850.72;4974319;28;20392;-73
2022/05/10 07:56:40;;;;;;;10.20;8.87;;;;;;;18.64;63.79;100853.16;4973999;28;20399;-74
2022/05/10 07:59:07;;;;;;;9.27;8.35;;;;;;;18.69;63.64;100844.06;4974266;28;20856;-73
2022/05/10 08:01:33;;;;;;;11.35;8.73;;;;;;;18.76;63.25;100850.06;4973946;28;20737;-74
2022/05/10 08:03:58;;;;;;;9.80;8.90;;;;;;;18.80;63.01;100850.28;4971828;28;20447;-73
2022/05/10 08:06:25;;;;;;;10.00;9.03;;;;;;;18.84;63.20;100846.66;4973536;28;20411;-73
2022/05/10 08:08:51;;;;;;;9.52;8.68;;;;;;;18.88;62.79;100836.75;4973526;28;20408;-74
2022/05/10 08:11:16;;;;;;;9.03;8.20;;;;;;;18.91;63.40;100847.13;4974063;28;20477;-73
2022/05/10 08:13:41;;;;;;;9.53;8.57;;;;;;;18.95;63.68;100848.19;4973750;28;20426;-73
2022/05/10 08:16:08;;;;;;;9.27;8.33;;;;;;;19.02;63.42;100845.09;4972846;28;20513;-73
2022/05/10 08:18:35;;;;;;;9.20;8.30;;;;;;;19.05;63.71;100839.03;4973923;28;20487;-73
2022/05/10 08:21:01;;;;;;;8.52;7.82;;;;;;;19.11;63.39;100843.34;4973176;28;20435;-73
2022/05/10 08:23:32;;;;;;;10.63;8.13;;;;;;;19.18;63.07;100849.31;4973208;28;20780;-73
2022/05/10 08:25:59;;;;;;;9.05;8.35;;;;;;;19.21;62.87;100848.72;4973539;28;20396;-73
2022/05/10 08:28:26;;;;;;;8.82;7.95;;;;;;;19.26;62.37;100843.19;4973011;28;20466;-74
2022/05/10 08:30:52;;;;;;;9.60;8.10;;;;;;;19.30;62.54;100844.22;4971397;28;20772;-73
2022/05/10 08:33:24;;;;;;;9.77;8.65;;;;;;;19.36;62.37;100845.00;4973347;28;20418;-74
2022/05/10 08:35:50;;;;;;;9.40;8.17;;;;;;;19.40;61.70;100826.78;4973410;28;20480;-74
2022/05/10 08:38:17;;;;;;;8.70;7.82;;;;;;;19.46;61.44;100828.41;4972839;28;20415;-74
2022/05/10 08:40:52;;;;;;;8.25;7.55;;;;;;;19.52;62.12;100830.81;4973375;28;20780;-74
2022/05/10 08:43:22;;;;;;;7.87;7.23;;;;;;;19.62;61.94;100832.59;4973290;28;20400;-73
2022/05/10 08:45:48;;;;;;;8.40;7.50;;;;;;;19.74;61.15;100821.97;4970743;28;20411;-74
2022/05/10 08:48:13;;;;;;;9.03;7.57;;;;;;;19.84;60.58;100824.56;4969041;28;20720;-73
2022/05/10 08:50:42;;;;;;;8.90;8.10;;;;;;;19.96;60.34;100826.84;4973195;28;20741;-73
2022/05/10 08:53:08;;;;;;;32.35;8.80;;;;;;;20.08;60.64;100828.06;4988075;28;20384;-73
2022/05/10 08:55:40;;;;;;;7.60;6.75;;;;;;;20.29;59.98;100825.00;4973201;28;20395;-73
2022/05/10 08:58:30;;;;;;;8.02;7.22;;;;;;;20.41;58.77;100820.66;4966852;28;20483;-73
2022/05/10 09:01:00;;;;;;;7.63;7.03;;;;;;;20.47;58.34;100822.22;4964967;28;20467;-73
2022/05/10 09:03:31;;;;;;;8.35;7.32;;;;;;;20.58;57.64;100814.59;4973159;28;20380;-73
2022/05/10 09:06:02;;;;;;;7.83;7.13;;;;;;;20.60;57.42;100818.69;4956165;28;20400;-73
2022/05/10 09:08:37;;;;;;;7.28;6.40;;;;;;;20.69;57.34;100822.34;4972786;28;20879;-73
2022/05/10 09:11:10;;;;;;;7.95;7.35;;;;;;;20.75;57.24;100819.53;4972902;28;20767;-74
2022/05/10 09:13:37;;;;;;;7.78;6.53;;;;;;;20.90;57.08;100817.28;4971271;28;20499;-73
2022/05/10 09:16:08;;;;;;;7.35;6.65;;;;;;;21.00;56.94;100811.59;4971315;28;20423;-73
2022/05/10 09:18:49;;;;;;;8.00;6.87;;;;;;;21.14;57.18;100812.41;4971413;28;20404;-72
2022/05/10 09:21:33;;;;;;;8.57;5.60;;;;;;;21.30;56.40;100812.94;4972952;28;20424;-73
2022/05/10 09:24:25;;;;;;;5.72;5.32;;;;;;;21.40;54.43;100811.91;4972718;28;20729;-73
2022/05/10 09:26:57;;;;;;;5.60;5.25;;;;;;;21.55;53.83;100812.41;4969781;28;20528;-73
2022/05/10 09:29:31;;;;;;;5.90;5.50;;;;;;;21.65;54.06;100805.84;4970630;28;20404;-74
2022/05/10 09:34:53;;;;;;;8.20;7.40;;;;;;;22.10;53.79;100807.56;4967057;28;20463;-73
2022/05/10 09:37:41;;;;;;;6.38;5.88;;;;;;;22.35;54.47;100805.31;4968646;28;20400;-73
2022/05/10 09:40:19;;;;;;;8.00;7.20;;;;;;;22.54;53.91;100800.38;4970014;28;20432;-72
2022/05/10 09:42:49;;;;;;;6.55;6.07;;;;;;;22.64;52.96;100806.47;4972118;28;20411;-72
2022/05/10 09:45:22;;;;;;;6.20;5.75;;;;;;;22.85;52.88;100804.00;4971283;28;20499;-72
2022/05/10 09:48:09;;;;;;;5.85;5.30;;;;;;;23.19;52.31;100800.53;4971249;28;20404;-72
2022/05/10 09:50:47;;;;;;;5.60;5.15;;;;;;;23.66;51.31;100799.69;4972344;28;20408;-72
2022/05/10 09:53:17;;;;;;;5.90;5.30;;;;;;;24.56;49.02;100791.53;4967695;28;20412;-72
2022/05/10 09:56:05;;;;;;;5.63;5.22;;;;;;;25.66;45.77;100797.72;4968833;28;20411;-72
2022/05/10 09:58:34;;;;;;;6.15;5.10;;;;;;;26.54;43.64;100791.88;4969667;28;20392;-73
2022/05/10 10:01:03;;;;;;;7.70;5.63;;;;;;;27.42;42.09;100788.50;4954886;28;20412;-73
2022/05/10 10:03:34;;;;;;;7.20;4.90;;;;;;;28.12;40.62;100794.63;4970748;28;20391;-72
2022/05/10 10:06:19;;;;;;;6.28;5.30;;;;;;;28.68;39.27;100790.63;4970041;28;20411;-73
2022/05/10 10:08:48;;;;;;;5.68;4.80;;;;;;;28.81;39.01;100796.97;4970575;28;20403;-71
2022/05/10 10:11:29;;;;;;;5.18;4.72;;;;;;;28.80;38.31;100793.34;4972181;28;20404;-71
2022/05/10 10:14:04;;;;;;;5.18;4.78;;;;;;;28.93;37.55;100779.31;4972829;28;20393;-74
2022/05/10 10:16:50;;;;;;;4.90;4.50;;;;;;;29.24;36.56;100788.47;4975247;28;20483;-73
2022/05/10 10:19:18;;;;;;;4.97;4.53;;;;;;;29.53;36.63;100784.41;4974093;28;20475;-71
2022/05/10 10:21:54;;;;;;;4.57;4.28;;;;;;;29.85;36.01;100783.13;4974453;28;20503;-72
2022/05/10 10:24:27;;;;;;;4.40;3.92;;;;;;;30.19;35.97;100787.03;4974470;28;20407;-70
2022/05/10 10:27:13;;;;;;;4.45;4.25;;;;;;;30.35;34.28;100775.75;4975873;28;20388;-71
2022/05/10 10:29:57;;;;;;;4.78;4.43;;;;;;;30.36;34.48;100771.78;4975100;28;20412;-71
2022/05/10 10:32:29;;;;;;;4.50;3.92;;;;;;;30.61;34.88;100773.09;4974064;28;20408;-70
2022/05/10 10:35:14;;;;;;;4.63;4.10;;;;;;;30.97;33.81;100779.31;4973962;28;20418;-70
2022/05/10 10:37:47;;;;;;;4.57;3.75;;;;;;;31.44;31.60;100773.25;4968918;28;20403;-71
2022/05/10 10:40:27;;;;;;;4.40;4.00;;;;;;;31.96;31.92;100775.19;4972256;28;20427;-70
2022/05/10 10:43:30;;;;;;;4.60;4.10;;;;;;;32.53;31.63;100777.50;4973927;28;20415;-70
2022/05/10 10:46:19;;;;;;;4.72;4.22;;;;;;;32.72;30.28;100762.47;4975107;28;20391;-71
2022/05/10 10:48:45;;;;;;;4.05;3.70;;;;;;;32.56;30.66;100761.88;4975548;28;20470;-70
2022/05/10 10:51:11;;;;;;;4.78;3.72;;;;;;;32.89;30.53;100759.00;4975056;28;20415;-70
2022/05/10 10:53:38;;;;;;;3.97;3.73;;;;;;;33.16;28.89;100759.66;4956958;28;20420;-71
2022/05/10 10:56:35;;;;;;;4.70;4.30;;;;;;;33.06;29.92;100755.53;4970068;28;21010;-70
2022/05/10 10:59:19;;;;;;;4.57;3.65;;;;;;;32.74;30.50;100749.63;4966888;28;20404;-70
2022/05/10 11:02:17;;;;;;;3.50;3.28;;;;;;;32.56;30.67;100747.84;4974660;28;20773;-71
2022/05/10 11:05:05;;;;;;;3.28;3.17;;;;;;;32.53;30.20;100745.81;4975150;28;20820;-71
2022/05/10 11:07:49;;;;;;;3.80;3.50;;;;;;;32.61;29.81;100742.72;4975111;28;20400;-71
2022/05/10 11:10:32;;;;;;;3.65;3.40;;;;;;;32.80;29.75;100736.06;4973251;28;20915;-71
2022/05/10 11:13:12;;;;;;;4.70;3.33;;;;;;;32.44;29.94;100737.69;4965086;28;20491;-70
2022/05/10 11:15:54;;;;;;;3.17;2.95;;;;;;;32.32;29.96;100744.41;4974961;28;20408;-70
2022/05/10 11:18:28;;;;;;;3.40;3.10;;;;;;;32.02;30.71;100740.00;4973422;28;20411;-70
2022/05/10 11:21:09;;;;;;;3.03;2.90;;;;;;;32.13;29.37;100732.56;4971445;28;20420;-70
2022/05/10 11:23:44;;;;;;;5.45;3.33;;;;;;;32.20;29.28;100727.84;4966351;28;20421;-70
2022/05/10 11:26:21;;;;;;;3.30;3.00;;;;;;;32.15;29.61;100730.19;4963470;28;20404;-70
2022/05/10 11:28:59;;;;;;;3.10;3.00;;;;;;;31.93;29.13;100719.91;4974818;28;20875;-70
2022/05/10 11:31:58;;;;;;;3.45;3.25;;;;;;;31.94;29.88;100719.53;4971462;28;20416;-70
2022/05/10 11:34:50;;;;;;;3.75;3.47;;;;;;;31.27;30.90;100718.59;4974487;28;20412;-69
2022/05/10 11:37:25;;;;;;;3.03;2.83;;;;;;;30.91;31.69;100717.22;4970774;28;20752;-70
2022/05/10 11:40:00;;;;;;;3.43;3.27;;;;;;;30.48;31.85;100714.91;4972788;28;20428;-70
2022/05/10 11:42:34;;;;;;;5.00;3.13;;;;;;;30.64;31.13;100702.41;4971123;28;20773;-71
2022/05/10 11:45:21;;;;;;;4.35;3.10;;;;;;;31.03;30.59;100705.84;4972592;28;20467;-71
2022/05/10 11:48:30;;;;;;;3.65;2.85;;;;;;;31.18;29.78;100696.50;4970962;28;20760;-71